Elkhart Lake, Wisconsin
Current Conditions -  °F | °C
As of 5:53 PM on Thursday 18 Dec 2014 (Local Time) from KSBM Reporting Station
Overcast Overcast  
Wind Chill: 19°   Ceiling: 2400
Heat Index: 27°   Visibility: 10mi
Dew Point: 21°   Wind: 7mph
Humidity: 78%   Direction: 330°NNW
Pressure: 30.24"   Gusts: NA
Location:  43.83°N, 88.02°W
Report Text: KSBM 182353Z AUTO 33006KT 10SM OVC024 M03/M06 A3024 RMK AO2 SLP251 T10281061 11017 21028 51007
Loading
Personal Weather Stations






























Interactive Weather Map New forecast layout! Learn more

10-Day Weather Forecast

Advertisements
Track Severe Weather on mobile